sensor_id;sensor_type;location;lat;lon;timestamp;temperature;humidity
64226;DHT22;50545;56.064;26.178;2022-07-18T00:00:15;11.80;99.90
64226;DHT22;50545;56.064;26.178;2022-07-18T00:02:43;11.80;99.90
64226;DHT22;50545;56.064;26.178;2022-07-18T00:05:10;11.70;99.90
64226;DHT22;50545;56.064;26.178;2022-07-18T00:07:37;11.70;99.90
64226;DHT22;50545;56.064;26.178;2022-07-18T00:10:05;11.70;99.90
64226;DHT22;50545;56.064;26.178;2022-07-18T00:12:32;11.70;99.90
64226;DHT22;50545;56.064;26.178;2022-07-18T00:15:00;11.70;99.90
64226;DHT22;50545;56.064;26.178;2022-07-18T00:17:27;11.70;99.90
64226;DHT22;50545;56.064;26.178;2022-07-18T00:19:54;11.60;99.90
64226;DHT22;50545;56.064;26.178;2022-07-18T00:22:22;11.70;99.90
64226;DHT22;50545;56.064;26.178;2022-07-18T00:24:50;11.70;99.90
64226;DHT22;50545;56.064;26.178;2022-07-18T00:27:17;11.70;99.90
64226;DHT22;50545;56.064;26.178;2022-07-18T00:29:45;11.70;99.90
64226;DHT22;50545;56.064;26.178;2022-07-18T00:32:12;11.70;99.90
64226;DHT22;50545;56.064;26.178;2022-07-18T00:34:39;11.80;99.90
64226;DHT22;50545;56.064;26.178;2022-07-18T00:37:07;11.80;99.90
64226;DHT22;50545;56.064;26.178;2022-07-18T00:39:34;11.80;99.90
64226;DHT22;50545;56.064;26.178;2022-07-18T00:42:01;11.80;99.90
64226;DHT22;50545;56.064;26.178;2022-07-18T00:44:29;11.80;99.90
64226;DHT22;50545;56.064;26.178;2022-07-18T00:46:59;11.80;99.90
64226;DHT22;50545;56.064;26.178;2022-07-18T00:49:28;11.80;99.90
64226;DHT22;50545;56.064;26.178;2022-07-18T00:51:57;11.80;99.90
64226;DHT22;50545;56.064;26.178;2022-07-18T00:54:24;11.80;99.90
64226;DHT22;50545;56.064;26.178;2022-07-18T00:56:51;11.80;99.90
64226;DHT22;50545;56.064;26.178;2022-07-18T00:59:19;11.80;99.90
64226;DHT22;50545;56.064;26.178;2022-07-18T01:01:46;11.80;99.90
64226;DHT22;50545;56.064;26.178;2022-07-18T01:04:21;11.80;99.90
64226;DHT22;50545;56.064;26.178;2022-07-18T01:06:50;11.80;99.90
64226;DHT22;50545;56.064;26.178;2022-07-18T01:09:18;11.80;99.90
64226;DHT22;50545;56.064;26.178;2022-07-18T01:11:47;11.80;99.90
64226;DHT22;50545;56.064;26.178;2022-07-18T01:14:14;11.80;99.90
64226;DHT22;50545;56.064;26.178;2022-07-18T01:16:42;11.80;99.90
64226;DHT22;50545;56.064;26.178;2022-07-18T01:19:10;11.80;99.90
64226;DHT22;50545;56.064;26.178;2022-07-18T01:21:37;11.90;99.90
64226;DHT22;50545;56.064;26.178;2022-07-18T01:24:06;11.80;99.90
64226;DHT22;50545;56.064;26.178;2022-07-18T01:26:34;11.90;99.90
64226;DHT22;50545;56.064;26.178;2022-07-18T01:29:01;11.90;99.90
64226;DHT22;50545;56.064;26.178;2022-07-18T01:31:29;11.90;99.90
64226;DHT22;50545;56.064;26.178;2022-07-18T01:34:01;11.90;99.90
64226;DHT22;50545;56.064;26.178;2022-07-18T01:36:28;11.90;99.90
64226;DHT22;50545;56.064;26.178;2022-07-18T01:38:56;12.00;99.90
64226;DHT22;50545;56.064;26.178;2022-07-18T01:41:23;12.00;99.90
64226;DHT22;50545;56.064;26.178;2022-07-18T01:43:50;12.00;99.90
64226;DHT22;50545;56.064;26.178;2022-07-18T01:46:18;12.00;99.90
64226;DHT22;50545;56.064;26.178;2022-07-18T01:48:45;12.00;99.90
64226;DHT22;50545;56.064;26.178;2022-07-18T01:51:13;12.00;99.90
64226;DHT22;50545;56.064;26.178;2022-07-18T01:53:41;12.00;99.90
64226;DHT22;50545;56.064;26.178;2022-07-18T01:56:12;12.00;99.90
64226;DHT22;50545;56.064;26.178;2022-07-18T01:58:39;12.00;99.90
64226;DHT22;50545;56.064;26.178;2022-07-18T02:01:06;11.90;99.90
64226;DHT22;50545;56.064;26.178;2022-07-18T02:03:34;12.00;99.90
64226;DHT22;50545;56.064;26.178;2022-07-18T02:06:01;11.90;99.90
64226;DHT22;50545;56.064;26.178;2022-07-18T02:08:29;11.90;99.90
64226;DHT22;50545;56.064;26.178;2022-07-18T02:10:57;11.80;99.90
64226;DHT22;50545;56.064;26.178;2022-07-18T02:13:24;11.80;99.90
64226;DHT22;50545;56.064;26.178;2022-07-18T02:15:52;11.70;99.90
64226;DHT22;50545;56.064;26.178;2022-07-18T02:18:22;11.70;99.90
64226;DHT22;50545;56.064;26.178;2022-07-18T02:20:49;11.70;99.90
64226;DHT22;50545;56.064;26.178;2022-07-18T02:23:16;11.60;99.90
64226;DHT22;50545;56.064;26.178;2022-07-18T02:25:44;11.60;99.90
64226;DHT22;50545;56.064;26.178;2022-07-18T02:28:11;11.60;99.90
64226;DHT22;50545;56.064;26.178;2022-07-18T02:30:38;11.60;99.90
64226;DHT22;50545;56.064;26.178;2022-07-18T02:33:06;11.50;99.90
64226;DHT22;50545;56.064;26.178;2022-07-18T02:35:33;11.60;99.90
64226;DHT22;50545;56.064;26.178;2022-07-18T02:38:01;11.60;99.90
64226;DHT22;50545;56.064;26.178;2022-07-18T02:40:28;11.50;99.90
64226;DHT22;50545;56.064;26.178;2022-07-18T02:42:55;11.50;99.90
64226;DHT22;50545;56.064;26.178;2022-07-18T02:45:23;11.60;99.90
64226;DHT22;50545;56.064;26.178;2022-07-18T02:47:50;11.60;99.90
64226;DHT22;50545;56.064;26.178;2022-07-18T02:50:18;11.60;99.90
64226;DHT22;50545;56.064;26.178;2022-07-18T02:52:45;11.60;99.90
64226;DHT22;50545;56.064;26.178;2022-07-18T02:55:13;11.60;99.90
64226;DHT22;50545;56.064;26.178;2022-07-18T02:57:41;11.60;99.90
64226;DHT22;50545;56.064;26.178;2022-07-18T03:00:11;11.60;99.90
64226;DHT22;50545;56.064;26.178;2022-07-18T03:02:39;11.60;99.90
64226;DHT22;50545;56.064;26.178;2022-07-18T03:05:07;11.60;99.90
64226;DHT22;50545;56.064;26.178;2022-07-18T03:07:35;11.60;99.90
64226;DHT22;50545;56.064;26.178;2022-07-18T03:10:03;11.60;99.90
64226;DHT22;50545;56.064;26.178;2022-07-18T03:12:32;11.60;99.90
64226;DHT22;50545;56.064;26.178;2022-07-18T03:14:59;11.50;99.90
64226;DHT22;50545;56.064;26.178;2022-07-18T03:17:26;11.50;99.90
64226;DHT22;50545;56.064;26.178;2022-07-18T03:19:54;11.50;99.90
64226;DHT22;50545;56.064;26.178;2022-07-18T03:22:21;11.50;99.90
64226;DHT22;50545;56.064;26.178;2022-07-18T03:24:48;11.60;99.90
64226;DHT22;50545;56.064;26.178;2022-07-18T03:27:16;11.60;99.90
64226;DHT22;50545;56.064;26.178;2022-07-18T03:29:43;11.60;99.90
64226;DHT22;50545;56.064;26.178;2022-07-18T03:32:10;11.70;99.90
64226;DHT22;50545;56.064;26.178;2022-07-18T03:34:38;11.80;99.90
64226;DHT22;50545;56.064;26.178;2022-07-18T03:37:05;12.00;99.90
64226;DHT22;50545;56.064;26.178;2022-07-18T03:39:33;12.00;99.90
64226;DHT22;50545;56.064;26.178;2022-07-18T03:42:00;12.10;99.90
64226;DHT22;50545;56.064;26.178;2022-07-18T03:44:28;12.20;99.90
64226;DHT22;50545;56.064;26.178;2022-07-18T03:46:55;12.30;99.90
64226;DHT22;50545;56.064;26.178;2022-07-18T03:49:22;12.30;99.90
64226;DHT22;50545;56.064;26.178;2022-07-18T03:51:49;12.40;99.90
64226;DHT22;50545;56.064;26.178;2022-07-18T03:54:17;12.50;99.90
64226;DHT22;50545;56.064;26.178;2022-07-18T03:56:44;12.50;99.90
64226;DHT22;50545;56.064;26.178;2022-07-18T03:59:11;12.60;99.90
64226;DHT22;50545;56.064;26.178;2022-07-18T04:01:39;12.70;99.90
64226;DHT22;50545;56.064;26.178;2022-07-18T04:04:06;12.80;99.90
64226;DHT22;50545;56.064;26.178;2022-07-18T04:06:34;12.80;99.90
64226;DHT22;50545;56.064;26.178;2022-07-18T04:09:01;12.90;99.90
64226;DHT22;50545;56.064;26.178;2022-07-18T04:11:28;12.90;99.90
64226;DHT22;50545;56.064;26.178;2022-07-18T04:13:56;13.00;99.90
64226;DHT22;50545;56.064;26.178;2022-07-18T04:16:23;13.00;99.90
64226;DHT22;50545;56.064;26.178;2022-07-18T04:18:51;13.00;99.90
64226;DHT22;50545;56.064;26.178;2022-07-18T04:21:18;13.10;99.90
64226;DHT22;50545;56.064;26.178;2022-07-18T04:23:46;13.10;99.90
64226;DHT22;50545;56.064;26.178;2022-07-18T04:26:13;13.20;99.90
64226;DHT22;50545;56.064;26.178;2022-07-18T04:28:40;13.20;99.90
64226;DHT22;50545;56.064;26.178;2022-07-18T04:31:08;13.30;99.90
64226;DHT22;50545;56.064;26.178;2022-07-18T04:33:35;13.30;99.90
64226;DHT22;50545;56.064;26.178;2022-07-18T04:36:02;13.40;99.90
64226;DHT22;50545;56.064;26.178;2022-07-18T04:38:30;13.50;99.90
64226;DHT22;50545;56.064;26.178;2022-07-18T04:41:01;13.60;99.90
64226;DHT22;50545;56.064;26.178;2022-07-18T04:43:28;13.60;99.90
64226;DHT22;50545;56.064;26.178;2022-07-18T04:45:55;13.70;99.90
64226;DHT22;50545;56.064;26.178;2022-07-18T04:48:23;13.70;99.90
64226;DHT22;50545;56.064;26.178;2022-07-18T04:50:50;13.80;99.90
64226;DHT22;50545;56.064;26.178;2022-07-18T04:53:18;13.90;99.90
64226;DHT22;50545;56.064;26.178;2022-07-18T04:55:45;14.00;99.90
64226;DHT22;50545;56.064;26.178;2022-07-18T04:58:12;14.00;99.90
64226;DHT22;50545;56.064;26.178;2022-07-18T05:00:40;14.10;99.90
64226;DHT22;50545;56.064;26.178;2022-07-18T05:03:07;14.20;99.90
64226;DHT22;50545;56.064;26.178;2022-07-18T05:05:34;14.20;99.90
64226;DHT22;50545;56.064;26.178;2022-07-18T05:08:04;14.20;99.90
64226;DHT22;50545;56.064;26.178;2022-07-18T05:10:33;14.20;99.90
64226;DHT22;50545;56.064;26.178;2022-07-18T05:13:00;14.20;99.90
64226;DHT22;50545;56.064;26.178;2022-07-18T05:15:28;14.30;99.90
64226;DHT22;50545;56.064;26.178;2022-07-18T05:17:55;14.20;99.90
64226;DHT22;50545;56.064;26.178;2022-07-18T05:20:25;14.20;99.90
64226;DHT22;50545;56.064;26.178;2022-07-18T05:22:53;14.20;99.90
64226;DHT22;50545;56.064;26.178;2022-07-18T05:25:21;14.30;99.90
64226;DHT22;50545;56.064;26.178;2022-07-18T05:27:51;14.30;99.90
64226;DHT22;50545;56.064;26.178;2022-07-18T05:30:19;14.40;99.90
64226;DHT22;50545;56.064;26.178;2022-07-18T05:32:47;14.40;99.90
64226;DHT22;50545;56.064;26.178;2022-07-18T05:35:15;14.40;99.90
64226;DHT22;50545;56.064;26.178;2022-07-18T05:37:42;14.40;99.90
64226;DHT22;50545;56.064;26.178;2022-07-18T05:40:12;14.40;99.90
64226;DHT22;50545;56.064;26.178;2022-07-18T05:42:40;14.40;99.90
64226;DHT22;50545;56.064;26.178;2022-07-18T05:45:21;14.40;99.90
64226;DHT22;50545;56.064;26.178;2022-07-18T05:47:48;14.40;99.90
64226;DHT22;50545;56.064;26.178;2022-07-18T05:50:16;14.40;99.90
64226;DHT22;50545;56.064;26.178;2022-07-18T05:52:43;14.40;99.90
64226;DHT22;50545;56.064;26.178;2022-07-18T05:55:11;14.40;99.90
64226;DHT22;50545;56.064;26.178;2022-07-18T05:57:38;14.40;99.90
64226;DHT22;50545;56.064;26.178;2022-07-18T06:00:08;14.50;99.90
64226;DHT22;50545;56.064;26.178;2022-07-18T06:02:36;14.60;99.90
64226;DHT22;50545;56.064;26.178;2022-07-18T06:05:05;14.60;99.90
64226;DHT22;50545;56.064;26.178;2022-07-18T06:07:56;14.60;99.90
64226;DHT22;50545;56.064;26.178;2022-07-18T06:10:25;14.60;99.90
64226;DHT22;50545;56.064;26.178;2022-07-18T06:12:54;14.70;99.90
64226;DHT22;50545;56.064;26.178;2022-07-18T06:15:21;14.70;99.90
64226;DHT22;50545;56.064;26.178;2022-07-18T06:17:50;14.70;99.90
64226;DHT22;50545;56.064;26.178;2022-07-18T06:20:17;14.80;99.90
64226;DHT22;50545;56.064;26.178;2022-07-18T06:22:45;14.80;99.90
64226;DHT22;50545;56.064;26.178;2022-07-18T06:25:13;14.80;99.90
64226;DHT22;50545;56.064;26.178;2022-07-18T06:27:40;14.90;99.90
64226;DHT22;50545;56.064;26.178;2022-07-18T06:30:08;14.90;99.90
64226;DHT22;50545;56.064;26.178;2022-07-18T06:32:37;14.90;99.90
64226;DHT22;50545;56.064;26.178;2022-07-18T06:35:05;14.90;99.90
64226;DHT22;50545;56.064;26.178;2022-07-18T06:37:33;14.90;99.90
64226;DHT22;50545;56.064;26.178;2022-07-18T06:40:00;14.90;99.90
64226;DHT22;50545;56.064;26.178;2022-07-18T06:42:30;14.90;99.90
64226;DHT22;50545;56.064;26.178;2022-07-18T06:44:57;14.80;99.90
64226;DHT22;50545;56.064;26.178;2022-07-18T06:47:24;14.80;99.90
64226;DHT22;50545;56.064;26.178;2022-07-18T06:49:52;14.80;99.90
64226;DHT22;50545;56.064;26.178;2022-07-18T06:52:19;14.80;99.90
64226;DHT22;50545;56.064;26.178;2022-07-18T06:54:47;14.90;99.90
64226;DHT22;50545;56.064;26.178;2022-07-18T06:57:15;14.90;99.90
64226;DHT22;50545;56.064;26.178;2022-07-18T06:59:42;15.00;99.90
64226;DHT22;50545;56.064;26.178;2022-07-18T07:02:16;14.90;99.90
64226;DHT22;50545;56.064;26.178;2022-07-18T07:04:43;14.90;99.90
64226;DHT22;50545;56.064;26.178;2022-07-18T07:07:10;14.90;99.90
64226;DHT22;50545;56.064;26.178;2022-07-18T07:09:38;14.90;99.90
64226;DHT22;50545;56.064;26.178;2022-07-18T07:12:05;15.00;99.90
64226;DHT22;50545;56.064;26.178;2022-07-18T07:14:33;15.10;99.90
64226;DHT22;50545;56.064;26.178;2022-07-18T07:17:00;15.10;99.90
64226;DHT22;50545;56.064;26.178;2022-07-18T07:19:27;15.10;99.90
64226;DHT22;50545;56.064;26.178;2022-07-18T07:21:55;15.10;99.90
64226;DHT22;50545;56.064;26.178;2022-07-18T07:24:22;15.10;99.90
64226;DHT22;50545;56.064;26.178;2022-07-18T07:26:50;15.10;99.90
64226;DHT22;50545;56.064;26.178;2022-07-18T07:29:22;15.10;99.90
64226;DHT22;50545;56.064;26.178;2022-07-18T07:31:49;15.10;99.90
64226;DHT22;50545;56.064;26.178;2022-07-18T07:34:17;15.10;99.90
64226;DHT22;50545;56.064;26.178;2022-07-18T07:36:44;15.10;99.90
64226;DHT22;50545;56.064;26.178;2022-07-18T07:39:11;15.20;99.90
64226;DHT22;50545;56.064;26.178;2022-07-18T07:41:39;15.20;99.90
64226;DHT22;50545;56.064;26.178;2022-07-18T07:44:06;15.20;99.90
64226;DHT22;50545;56.064;26.178;2022-07-18T07:46:33;15.20;99.90
64226;DHT22;50545;56.064;26.178;2022-07-18T07:49:01;15.20;99.90
64226;DHT22;50545;56.064;26.178;2022-07-18T07:51:28;15.20;99.90
64226;DHT22;50545;56.064;26.178;2022-07-18T07:54:02;15.20;99.90
64226;DHT22;50545;56.064;26.178;2022-07-18T07:56:29;15.20;99.90
64226;DHT22;50545;56.064;26.178;2022-07-18T07:58:58;15.20;99.90
64226;DHT22;50545;56.064;26.178;2022-07-18T08:01:26;15.20;99.90
64226;DHT22;50545;56.064;26.178;2022-07-18T08:03:54;15.30;99.90
64226;DHT22;50545;56.064;26.178;2022-07-18T08:06:21;15.50;99.90
64226;DHT22;50545;56.064;26.178;2022-07-18T08:08:48;15.60;99.90
64226;DHT22;50545;56.064;26.178;2022-07-18T08:11:22;15.70;99.90
64226;DHT22;50545;56.064;26.178;2022-07-18T08:13:50;15.90;99.90
64226;DHT22;50545;56.064;26.178;2022-07-18T08:16:17;16.00;99.90
64226;DHT22;50545;56.064;26.178;2022-07-18T08:18:44;16.00;99.90
64226;DHT22;50545;56.064;26.178;2022-07-18T08:21:11;15.90;99.90
64226;DHT22;50545;56.064;26.178;2022-07-18T08:23:39;16.00;99.90
64226;DHT22;50545;56.064;26.178;2022-07-18T08:26:06;16.20;99.90
64226;DHT22;50545;56.064;26.178;2022-07-18T08:28:33;16.30;99.90
64226;DHT22;50545;56.064;26.178;2022-07-18T08:31:01;16.50;99.90
64226;DHT22;50545;56.064;26.178;2022-07-18T08:33:28;16.70;99.90
64226;DHT22;50545;56.064;26.178;2022-07-18T08:35:55;16.70;99.90
64226;DHT22;50545;56.064;26.178;2022-07-18T08:38:22;16.60;99.90
64226;DHT22;50545;56.064;26.178;2022-07-18T08:40:53;16.60;99.90
64226;DHT22;50545;56.064;26.178;2022-07-18T08:43:21;16.70;99.90
64226;DHT22;50545;56.064;26.178;2022-07-18T08:45:56;16.60;99.90
64226;DHT22;50545;56.064;26.178;2022-07-18T08:48:24;16.60;99.90
64226;DHT22;50545;56.064;26.178;2022-07-18T08:50:51;16.60;99.90
64226;DHT22;50545;56.064;26.178;2022-07-18T08:53:19;16.70;99.90
64226;DHT22;50545;56.064;26.178;2022-07-18T08:55:47;16.80;99.90
64226;DHT22;50545;56.064;26.178;2022-07-18T08:58:15;16.90;99.90
64226;DHT22;50545;56.064;26.178;2022-07-18T09:01:04;17.00;99.90
64226;DHT22;50545;56.064;26.178;2022-07-18T09:03:32;16.90;99.90
64226;DHT22;50545;56.064;26.178;2022-07-18T09:06:06;17.00;99.90
64226;DHT22;50545;56.064;26.178;2022-07-18T09:08:35;17.20;99.90
64226;DHT22;50545;56.064;26.178;2022-07-18T09:11:03;17.30;99.90
64226;DHT22;50545;56.064;26.178;2022-07-18T09:16:10;17.60;96.70
64226;DHT22;50545;56.064;26.178;2022-07-18T09:18:43;17.60;99.90
64226;DHT22;50545;56.064;26.178;2022-07-18T09:21:16;17.70;98.10
64226;DHT22;50545;56.064;26.178;2022-07-18T09:23:49;17.80;99.90
64226;DHT22;50545;56.064;26.178;2022-07-18T09:26:39;17.90;96.60
64226;DHT22;50545;56.064;26.178;2022-07-18T09:29:07;17.80;92.70
64226;DHT22;50545;56.064;26.178;2022-07-18T09:31:54;17.80;97.80
64226;DHT22;50545;56.064;26.178;2022-07-18T09:34:38;17.80;94.60
64226;DHT22;50545;56.064;26.178;2022-07-18T09:37:12;17.90;99.90
64226;DHT22;50545;56.064;26.178;2022-07-18T09:39:40;18.00;99.30
64226;DHT22;50545;56.064;26.178;2022-07-18T09:42:19;18.30;99.90
64226;DHT22;50545;56.064;26.178;2022-07-18T09:44:59;18.60;97.80
64226;DHT22;50545;56.064;26.178;2022-07-18T09:47:26;18.90;98.80
64226;DHT22;50545;56.064;26.178;2022-07-18T09:49:54;19.10;92.70
64226;DHT22;50545;56.064;26.178;2022-07-18T09:52:22;19.20;89.60
64226;DHT22;50545;56.064;26.178;2022-07-18T09:54:49;19.10;86.00
64226;DHT22;50545;56.064;26.178;2022-07-18T09:57:25;19.00;87.40
64226;DHT22;50545;56.064;26.178;2022-07-18T09:59:53;18.80;85.80
64226;DHT22;50545;56.064;26.178;2022-07-18T10:02:21;18.50;85.70
64226;DHT22;50545;56.064;26.178;2022-07-18T10:04:49;18.30;90.30
64226;DHT22;50545;56.064;26.178;2022-07-18T10:07:17;18.00;93.60
64226;DHT22;50545;56.064;26.178;2022-07-18T10:09:45;17.70;95.70
64226;DHT22;50545;56.064;26.178;2022-07-18T10:12:15;17.40;99.90
64226;DHT22;50545;56.064;26.178;2022-07-18T10:14:44;17.00;99.90
64226;DHT22;50545;56.064;26.178;2022-07-18T10:17:11;16.80;99.90
64226;DHT22;50545;56.064;26.178;2022-07-18T10:19:40;16.70;99.90
64226;DHT22;50545;56.064;26.178;2022-07-18T10:22:07;16.60;99.90
64226;DHT22;50545;56.064;26.178;2022-07-18T10:24:39;16.50;99.90
64226;DHT22;50545;56.064;26.178;2022-07-18T10:27:13;16.50;99.90
64226;DHT22;50545;56.064;26.178;2022-07-18T10:30:07;16.40;99.90
64226;DHT22;50545;56.064;26.178;2022-07-18T10:32:35;16.40;99.90
64226;DHT22;50545;56.064;26.178;2022-07-18T10:35:02;16.50;99.90
64226;DHT22;50545;56.064;26.178;2022-07-18T10:37:31;16.50;99.90
64226;DHT22;50545;56.064;26.178;2022-07-18T10:45:50;16.80;99.90
64226;DHT22;50545;56.064;26.178;2022-07-18T10:51:14;17.10;99.90
64226;DHT22;50545;56.064;26.178;2022-07-18T10:54:02;17.30;99.90
64226;DHT22;50545;56.064;26.178;2022-07-18T10:59:20;17.50;99.90
64226;DHT22;50545;56.064;26.178;2022-07-18T11:01:51;17.60;99.90
64226;DHT22;50545;56.064;26.178;2022-07-18T11:04:25;17.40;99.90
64226;DHT22;50545;56.064;26.178;2022-07-18T11:07:12;17.40;99.90
64226;DHT22;50545;56.064;26.178;2022-07-18T11:09:45;17.30;99.90
64226;DHT22;50545;56.064;26.178;2022-07-18T11:12:27;17.30;99.90
64226;DHT22;50545;56.064;26.178;2022-07-18T11:23:01;18.30;99.90
64226;DHT22;50545;56.064;26.178;2022-07-18T11:25:29;18.50;99.90
64226;DHT22;50545;56.064;26.178;2022-07-18T11:28:17;18.50;90.80
64226;DHT22;50545;56.064;26.178;2022-07-18T11:30:46;18.50;94.30
64226;DHT22;50545;56.064;26.178;2022-07-18T11:33:27;18.30;91.80
64226;DHT22;50545;56.064;26.178;2022-07-18T11:36:09;18.00;91.70
64226;DHT22;50545;56.064;26.178;2022-07-18T11:38:39;17.90;
64226;DHT22;50545;56.064;26.178;2022-07-18T11:41:13;17.90;98.20
64226;DHT22;50545;56.064;26.178;2022-07-18T11:43:40;18.00;92.10
64226;DHT22;50545;56.064;26.178;2022-07-18T11:46:12;18.10;93.00
64226;DHT22;50545;56.064;26.178;2022-07-18T11:48:44;18.10;92.30
64226;DHT22;50545;56.064;26.178;2022-07-18T11:51:18;18.10;87.60
64226;DHT22;50545;56.064;26.178;2022-07-18T11:53:53;18.10;81.60
64226;DHT22;50545;56.064;26.178;2022-07-18T11:56:21;18.00;89.40
64226;DHT22;50545;56.064;26.178;2022-07-18T11:58:49;18.00;91.80
64226;DHT22;50545;56.064;26.178;2022-07-18T12:01:17;17.80;92.40
64226;DHT22;50545;56.064;26.178;2022-07-18T12:03:47;17.70;92.50
64226;DHT22;50545;56.064;26.178;2022-07-18T12:06:23;17.60;93.80
64226;DHT22;50545;56.064;26.178;2022-07-18T12:08:55;17.40;91.40
64226;DHT22;50545;56.064;26.178;2022-07-18T12:11:34;17.30;96.50
64226;DHT22;50545;56.064;26.178;2022-07-18T12:16:45;17.20;99.90
64226;DHT22;50545;56.064;26.178;2022-07-18T12:19:18;17.20;99.90
64226;DHT22;50545;56.064;26.178;2022-07-18T12:32:44;17.60;97.30
64226;DHT22;50545;56.064;26.178;2022-07-18T12:35:18;17.70;98.90
64226;DHT22;50545;56.064;26.178;2022-07-18T12:38:04;17.80;99.90
64226;DHT22;50545;56.064;26.178;2022-07-18T12:41:03;17.90;99.70
64226;DHT22;50545;56.064;26.178;2022-07-18T12:43:33;18.00;91.50
64226;DHT22;50545;56.064;26.178;2022-07-18T12:46:03;18.00;91.80
64226;DHT22;50545;56.064;26.178;2022-07-18T12:48:31;18.10;93.00
64226;DHT22;50545;56.064;26.178;2022-07-18T12:51:07;18.20;93.60
64226;DHT22;50545;56.064;26.178;2022-07-18T12:53:36;18.10;90.00
64226;DHT22;50545;56.064;26.178;2022-07-18T12:56:04;18.00;91.10
64226;DHT22;50545;56.064;26.178;2022-07-18T12:58:32;18.00;94.00
64226;DHT22;50545;56.064;26.178;2022-07-18T13:00:59;17.90;93.00
64226;DHT22;50545;56.064;26.178;2022-07-18T13:03:34;17.80;95.50
64226;DHT22;50545;56.064;26.178;2022-07-18T13:06:01;17.60;98.40
64226;DHT22;50545;56.064;26.178;2022-07-18T13:08:28;17.60;99.90
64226;DHT22;50545;56.064;26.178;2022-07-18T13:10:57;17.60;99.90
64226;DHT22;50545;56.064;26.178;2022-07-18T13:13:25;17.70;99.90
64226;DHT22;50545;56.064;26.178;2022-07-18T13:15:53;17.80;99.90
64226;DHT22;50545;56.064;26.178;2022-07-18T13:18:20;18.00;99.90
64226;DHT22;50545;56.064;26.178;2022-07-18T13:20:47;18.30;99.90
64226;DHT22;50545;56.064;26.178;2022-07-18T13:23:15;18.60;99.40
64226;DHT22;50545;56.064;26.178;2022-07-18T13:25:43;19.40;99.90
64226;DHT22;50545;56.064;26.178;2022-07-18T13:28:11;20.40;94.10
64226;DHT22;50545;56.064;26.178;2022-07-18T13:30:38;21.10;78.20
64226;DHT22;50545;56.064;26.178;2022-07-18T13:33:06;21.50;79.20
64226;DHT22;50545;56.064;26.178;2022-07-18T13:35:34;21.60;71.00
64226;DHT22;50545;56.064;26.178;2022-07-18T13:38:01;21.10;69.50
64226;DHT22;50545;56.064;26.178;2022-07-18T13:40:28;20.80;70.20
64226;DHT22;50545;56.064;26.178;2022-07-18T13:42:56;20.50;71.00
64226;DHT22;50545;56.064;26.178;2022-07-18T13:45:24;20.20;71.30
64226;DHT22;50545;56.064;26.178;2022-07-18T13:47:51;19.90;72.00
64226;DHT22;50545;56.064;26.178;2022-07-18T13:50:18;19.60;77.00
64226;DHT22;50545;56.064;26.178;2022-07-18T13:52:46;19.40;77.40
64226;DHT22;50545;56.064;26.178;2022-07-18T13:55:13;19.20;79.00
64226;DHT22;50545;56.064;26.178;2022-07-18T13:57:40;19.10;79.90
64226;DHT22;50545;56.064;26.178;2022-07-18T14:00:09;19.10;83.50
64226;DHT22;50545;56.064;26.178;2022-07-18T14:02:36;19.00;82.70
64226;DHT22;50545;56.064;26.178;2022-07-18T14:05:04;19.00;84.10
64226;DHT22;50545;56.064;26.178;2022-07-18T14:07:42;19.10;84.90
64226;DHT22;50545;56.064;26.178;2022-07-18T14:10:12;19.10;86.40
64226;DHT22;50545;56.064;26.178;2022-07-18T14:12:39;19.10;84.50
64226;DHT22;50545;56.064;26.178;2022-07-18T14:15:07;19.00;83.20
64226;DHT22;50545;56.064;26.178;2022-07-18T14:17:35;18.80;83.40
64226;DHT22;50545;56.064;26.178;2022-07-18T14:20:03;18.80;86.10
64226;DHT22;50545;56.064;26.178;2022-07-18T14:22:30;18.70;86.10
64226;DHT22;50545;56.064;26.178;2022-07-18T14:24:57;18.70;87.50
64226;DHT22;50545;56.064;26.178;2022-07-18T14:27:25;18.70;85.90
64226;DHT22;50545;56.064;26.178;2022-07-18T14:29:52;18.70;88.80
64226;DHT22;50545;56.064;26.178;2022-07-18T14:32:19;18.70;90.00
64226;DHT22;50545;56.064;26.178;2022-07-18T14:34:47;18.70;91.30
64226;DHT22;50545;56.064;26.178;2022-07-18T14:37:14;18.70;90.60
64226;DHT22;50545;56.064;26.178;2022-07-18T14:39:41;18.70;91.00
64226;DHT22;50545;56.064;26.178;2022-07-18T14:42:08;18.60;91.80
64226;DHT22;50545;56.064;26.178;2022-07-18T14:44:36;18.60;91.00
64226;DHT22;50545;56.064;26.178;2022-07-18T14:47:03;18.50;91.60
64226;DHT22;50545;56.064;26.178;2022-07-18T14:49:31;18.40;92.40
64226;DHT22;50545;56.064;26.178;2022-07-18T14:51:58;18.40;93.30
64226;DHT22;50545;56.064;26.178;2022-07-18T14:54:29;18.30;94.50
64226;DHT22;50545;56.064;26.178;2022-07-18T14:56:56;18.30;94.70
64226;DHT22;50545;56.064;26.178;2022-07-18T14:59:24;18.30;96.60
64226;DHT22;50545;56.064;26.178;2022-07-18T15:01:51;18.30;95.40
64226;DHT22;50545;56.064;26.178;2022-07-18T15:04:18;18.30;96.00
64226;DHT22;50545;56.064;26.178;2022-07-18T15:06:46;18.30;96.20
64226;DHT22;50545;56.064;26.178;2022-07-18T15:09:13;18.20;96.20
64226;DHT22;50545;56.064;26.178;2022-07-18T15:11:41;18.20;95.00
64226;DHT22;50545;56.064;26.178;2022-07-18T15:14:09;18.00;94.90
64226;DHT22;50545;56.064;26.178;2022-07-18T15:16:37;17.90;98.10
64226;DHT22;50545;56.064;26.178;2022-07-18T15:19:04;17.70;99.00
64226;DHT22;50545;56.064;26.178;2022-07-18T15:21:32;17.60;99.90
64226;DHT22;50545;56.064;26.178;2022-07-18T15:24:00;17.60;99.90
64226;DHT22;50545;56.064;26.178;2022-07-18T15:26:27;17.50;99.90
64226;DHT22;50545;56.064;26.178;2022-07-18T15:28:54;17.40;99.90
64226;DHT22;50545;56.064;26.178;2022-07-18T15:31:21;17.40;99.90
64226;DHT22;50545;56.064;26.178;2022-07-18T15:33:49;17.30;99.90
64226;DHT22;50545;56.064;26.178;2022-07-18T15:36:16;17.30;99.90
64226;DHT22;50545;56.064;26.178;2022-07-18T15:38:43;17.30;99.90
64226;DHT22;50545;56.064;26.178;2022-07-18T15:41:11;17.30;99.90
64226;DHT22;50545;56.064;26.178;2022-07-18T15:43:40;17.30;99.90
64226;DHT22;50545;56.064;26.178;2022-07-18T15:46:08;17.20;99.90
64226;DHT22;50545;56.064;26.178;2022-07-18T15:48:35;17.20;99.90
64226;DHT22;50545;56.064;26.178;2022-07-18T15:51:03;17.20;99.90
64226;DHT22;50545;56.064;26.178;2022-07-18T15:53:30;17.20;99.90
64226;DHT22;50545;56.064;26.178;2022-07-18T15:55:57;17.20;99.90
64226;DHT22;50545;56.064;26.178;2022-07-18T15:58:25;17.20;99.90
64226;DHT22;50545;56.064;26.178;2022-07-18T16:00:52;17.10;99.90